createdAt,value
2022-12-11T00:00:59.942Z,30.98
2022-12-11T00:02:01.863Z,30.83
2022-12-11T00:03:04.342Z,30.40
2022-12-11T00:04:06.031Z,32.05
2022-12-11T00:05:08.417Z,32.65
2022-12-11T00:06:13.644Z,32.50
2022-12-11T00:07:15.313Z,31.33
2022-12-11T00:08:17.038Z,31.40
2022-12-11T00:09:19.735Z,31.02
2022-12-11T00:10:21.443Z,31.33
2022-12-11T00:11:23.807Z,31.52
2022-12-11T00:12:25.519Z,31.90
2022-12-11T00:13:27.469Z,31.27
2022-12-11T00:14:29.697Z,30.50
2022-12-11T00:15:31.431Z,31.17
2022-12-11T00:16:33.197Z,32.42
2022-12-11T00:17:34.944Z,32.90
2022-12-11T00:18:36.979Z,32.90
2022-12-11T00:19:38.686Z,34.53
2022-12-11T00:20:40.644Z,32.58
2022-12-11T00:21:42.474Z,33.38
2022-12-11T00:22:44.195Z,32.35
2022-12-11T00:23:45.873Z,32.05
2022-12-11T00:24:47.572Z,31.42
2022-12-11T00:25:49.748Z,31.38
2022-12-11T00:26:51.460Z,32.08
2022-12-11T00:27:53.123Z,33.28
2022-12-11T00:28:57.184Z,32.10
2022-12-11T00:29:58.835Z,29.98
2022-12-11T00:31:07.528Z,31.73
2022-12-11T00:32:09.261Z,31.88
2022-12-11T00:33:11.801Z,32.65
2022-12-11T00:34:13.567Z,33.10
2022-12-11T00:35:15.263Z,33.53
2022-12-11T00:36:23.108Z,32.17
2022-12-11T00:37:24.896Z,32.30
2022-12-11T00:38:26.675Z,30.67
2022-12-11T00:39:28.363Z,31.02
2022-12-11T00:40:30.032Z,29.88
2022-12-11T00:41:32.305Z,28.45
2022-12-11T00:42:33.977Z,28.00
2022-12-11T00:43:35.863Z,28.63
2022-12-11T00:44:37.706Z,26.63
2022-12-11T00:45:42.402Z,27.05
2022-12-11T00:46:44.127Z,38.95
2022-12-11T00:47:45.827Z,43.38
2022-12-11T00:48:49.954Z,45.90
2022-12-11T00:49:51.663Z,45.40
2022-12-11T00:50:53.422Z,45.33
2022-12-11T00:51:55.113Z,45.55
2022-12-11T00:52:56.773Z,45.15
2022-12-11T00:53:58.472Z,43.05
2022-12-11T00:55:00.157Z,45.47
2022-12-11T00:56:01.821Z,44.97
2022-12-11T00:57:03.598Z,44.83
2022-12-11T00:58:05.912Z,47.95
2022-12-11T00:59:07.666Z,49.42
2022-12-11T01:00:10.170Z,50.80
2022-12-11T01:01:21.318Z,51.53
2022-12-11T01:02:23.080Z,57.22
2022-12-11T01:03:24.774Z,53.63
2022-12-11T01:04:26.797Z,54.10
2022-12-11T01:05:28.804Z,53.85
2022-12-11T01:06:30.573Z,54.45
2022-12-11T01:07:32.240Z,53.35
2022-12-11T01:08:38.466Z,50.58
2022-12-11T01:09:59.111Z,49.80
2022-12-11T01:11:10.359Z,49.22
2022-12-11T01:16:18.496Z,47.78
2022-12-11T01:17:20.203Z,50.42
2022-12-11T01:18:22.040Z,49.72
2022-12-11T01:19:23.696Z,50.70
2022-12-11T01:20:26.495Z,42.50
2022-12-11T01:21:28.224Z,39.42
2022-12-11T01:22:30.490Z,38.50
2022-12-11T01:23:32.179Z,40.20
2022-12-11T01:24:33.839Z,40.60
2022-12-11T01:25:38.269Z,45.13
2022-12-11T01:26:40.004Z,41.10
2022-12-11T01:27:41.679Z,41.40
2022-12-11T01:28:44.171Z,40.60
2022-12-11T01:29:45.829Z,41.28
2022-12-11T01:30:47.618Z,40.33
2022-12-11T01:31:49.343Z,39.08
2022-12-11T01:32:51.039Z,39.45
2022-12-11T01:33:55.226Z,38.63
2022-12-11T01:34:56.886Z,39.00
2022-12-11T01:35:58.555Z,38.45
2022-12-11T01:37:00.220Z,36.58
2022-12-11T01:38:01.861Z,38.65
2022-12-11T01:39:04.182Z,34.95
2022-12-11T01:40:07.306Z,35.28
2022-12-11T01:41:09.523Z,36.42
2022-12-11T01:42:17.671Z,34.47
2022-12-11T01:43:19.448Z,33.08
2022-12-11T01:44:21.363Z,35.15
2022-12-11T01:45:30.730Z,34.92
2022-12-11T01:46:34.625Z,35.35
2022-12-11T01:47:36.383Z,34.95
2022-12-11T01:48:42.211Z,34.78
2022-12-11T01:49:44.204Z,34.42
2022-12-11T01:51:06.183Z,33.45
2022-12-11T01:52:16.368Z,32.97
2022-12-11T01:53:25.140Z,32.95
2022-12-11T01:54:28.438Z,31.63
2022-12-11T01:55:30.108Z,30.95
2022-12-11T01:56:34.169Z,31.98
2022-12-11T01:57:40.464Z,31.63
2022-12-11T01:58:47.787Z,29.48
2022-12-11T01:59:49.489Z,28.20
2022-12-11T02:00:52.715Z,29.25
2022-12-11T02:01:59.405Z,25.00
2022-12-11T02:03:01.157Z,26.40
2022-12-11T02:04:03.404Z,28.13
2022-12-11T02:05:06.282Z,27.15
2022-12-11T02:06:37.963Z,25.15
2022-12-11T02:07:52.780Z,24.67
2022-12-11T02:08:54.527Z,24.80
2022-12-11T02:09:56.418Z,25.38
2022-12-11T02:11:21.108Z,24.90
2022-12-11T02:12:41.591Z,25.25
2022-12-11T02:13:48.729Z,24.85
2022-12-11T02:14:52.993Z,25.65
2022-12-11T02:16:29.950Z,24.85
2022-12-11T02:17:56.024Z,24.23
2022-12-11T02:18:57.668Z,24.75
2022-12-11T02:20:16.992Z,23.65
2022-12-11T02:21:34.617Z,23.02
2022-12-11T02:23:04.361Z,24.45
2022-12-11T02:24:27.161Z,23.25
2022-12-11T02:25:37.102Z,26.67
2022-12-11T02:27:00.241Z,25.98
2022-12-11T02:28:11.050Z,26.05
2022-12-11T02:29:26.275Z,25.95
2022-12-11T02:30:28.746Z,27.58
2022-12-11T02:31:36.570Z,26.40
2022-12-11T02:32:59.128Z,26.35
2022-12-11T02:34:29.426Z,24.58
2022-12-11T02:35:38.103Z,25.10
2022-12-11T02:36:48.430Z,25.50
2022-12-11T02:37:56.397Z,25.83
2022-12-11T02:39:01.466Z,26.60
2022-12-11T02:40:04.938Z,26.45
2022-12-11T02:41:08.293Z,25.83
2022-12-11T02:42:13.056Z,25.77
2022-12-11T02:43:16.908Z,26.17
2022-12-11T02:44:27.183Z,25.38
2022-12-11T02:45:29.795Z,24.70
2022-12-11T02:46:34.899Z,24.33
2022-12-11T02:47:39.603Z,25.20
2022-12-11T02:48:42.140Z,24.08
2022-12-11T02:49:47.849Z,24.60
2022-12-11T02:50:52.781Z,23.85
2022-12-11T02:51:57.034Z,24.52
2022-12-11T02:53:03.051Z,24.98
2022-12-11T02:54:07.553Z,23.63
2022-12-11T02:55:13.032Z,26.45
2022-12-11T02:56:26.130Z,25.55
2022-12-11T02:57:40.503Z,25.35
2022-12-11T02:58:52.703Z,24.50
2022-12-11T02:59:57.151Z,24.13
2022-12-11T03:00:58.886Z,25.23
2022-12-11T03:02:01.251Z,25.95
2022-12-11T03:03:03.219Z,26.20
2022-12-11T03:04:05.050Z,25.15
2022-12-11T03:05:07.528Z,25.83
2022-12-11T03:06:14.920Z,23.88
2022-12-11T03:07:26.539Z,23.85
2022-12-11T03:08:28.250Z,22.88
2022-12-11T03:09:29.977Z,21.70
2022-12-11T03:10:31.688Z,22.85
2022-12-11T03:11:33.382Z,22.05
2022-12-11T03:12:39.108Z,21.80
2022-12-11T03:13:42.736Z,19.77
2022-12-11T03:14:45.024Z,21.27
2022-12-11T03:16:03.935Z,19.67
2022-12-11T03:17:15.359Z,19.48
2022-12-11T03:18:35.285Z,19.42
2022-12-11T03:19:45.980Z,19.35
2022-12-11T03:21:04.675Z,18.67
2022-12-11T03:22:16.267Z,17.27
2022-12-11T03:23:30.795Z,17.02
2022-12-11T03:24:46.351Z,16.15
2022-12-11T03:25:55.802Z,15.55
2022-12-11T03:27:11.191Z,16.50
2022-12-11T03:28:19.807Z,17.23
2022-12-11T03:29:25.734Z,18.75
2022-12-11T03:30:29.052Z,18.20
2022-12-11T03:31:42.414Z,17.35
2022-12-11T03:32:50.350Z,17.42
2022-12-11T03:33:56.303Z,16.83
2022-12-11T03:35:05.414Z,17.20
2022-12-11T03:36:31.252Z,17.23
2022-12-11T03:37:36.615Z,17.05
2022-12-11T03:38:49.259Z,16.83
2022-12-11T03:39:54.687Z,15.90
2022-12-11T03:41:00.930Z,15.85
2022-12-11T03:42:07.096Z,16.85
2022-12-11T03:43:11.090Z,16.35
2022-12-11T03:44:13.715Z,14.70
2022-12-11T03:45:17.725Z,14.82
2022-12-11T03:46:22.545Z,14.25
2022-12-11T03:47:27.227Z,14.43
2022-12-11T03:48:34.232Z,13.15
2022-12-11T03:49:40.285Z,13.07
2022-12-11T03:50:43.681Z,13.32
2022-12-11T03:51:48.332Z,13.70
2022-12-11T03:52:51.110Z,13.30
2022-12-11T03:53:53.404Z,13.60
2022-12-11T03:55:00.383Z,13.32
2022-12-11T03:56:04.524Z,15.30
2022-12-11T03:57:08.407Z,16.20
2022-12-11T03:58:10.102Z,17.48
2022-12-11T03:59:12.329Z,16.42
2022-12-11T04:00:16.902Z,15.73
2022-12-11T04:01:18.592Z,15.40
2022-12-11T04:02:20.480Z,14.55
2022-12-11T04:03:22.211Z,14.25
2022-12-11T04:04:23.957Z,13.20
2022-12-11T04:05:25.674Z,11.80
2022-12-11T04:06:27.564Z,12.35
2022-12-11T04:07:29.230Z,11.45
2022-12-11T04:08:30.960Z,12.05
2022-12-11T04:09:33.045Z,11.70
2022-12-11T04:10:34.749Z,12.23
2022-12-11T04:11:36.506Z,11.77
2022-12-11T04:12:38.164Z,12.20
2022-12-11T04:13:41.195Z,11.93
2022-12-11T04:15:01.538Z,11.48
2022-12-11T04:16:03.274Z,11.73
2022-12-11T04:17:05.552Z,11.32
2022-12-11T04:18:27.422Z,12.32
2022-12-11T04:19:47.839Z,10.35
2022-12-11T04:21:08.252Z,11.52
2022-12-11T04:22:32.793Z,8.60
2022-12-11T04:23:52.966Z,9.90
2022-12-11T04:24:54.636Z,8.93
2022-12-11T04:26:14.648Z,9.13
2022-12-11T04:27:36.049Z,8.88
2022-12-11T04:29:39.581Z,7.13
2022-12-11T04:30:41.427Z,6.93
2022-12-11T04:31:43.272Z,7.68
2022-12-11T04:32:45.157Z,7.30
2022-12-11T04:33:47.541Z,7.00
2022-12-11T04:34:49.225Z,6.53
2022-12-11T04:35:50.889Z,6.55
2022-12-11T04:36:52.552Z,6.28
2022-12-11T04:37:54.318Z,6.15
2022-12-11T04:38:56.072Z,5.13
2022-12-11T04:39:57.745Z,5.22
2022-12-11T04:41:08.298Z,5.72
2022-12-11T04:42:09.959Z,4.82
2022-12-11T04:43:11.644Z,6.18
2022-12-11T04:44:13.343Z,8.70
2022-12-11T04:45:15.215Z,10.13
2022-12-11T04:46:21.216Z,11.27
2022-12-11T04:47:23.213Z,10.93
2022-12-11T04:48:24.921Z,11.57
2022-12-11T04:49:26.578Z,11.85
2022-12-11T04:50:28.317Z,11.82
2022-12-11T04:51:30.137Z,11.77
2022-12-11T04:52:31.844Z,11.50
2022-12-11T04:53:34.173Z,11.85
2022-12-11T04:54:36.110Z,11.88
2022-12-11T04:55:39.381Z,10.95
2022-12-11T04:56:41.031Z,11.57
2022-12-11T04:57:42.799Z,11.57
2022-12-11T04:58:45.550Z,12.13
2022-12-11T04:59:47.924Z,11.38
2022-12-11T05:00:49.865Z,10.63
2022-12-11T05:01:52.505Z,10.00
2022-12-11T05:02:54.265Z,11.25
2022-12-11T05:03:56.280Z,12.75
2022-12-11T05:04:57.976Z,12.65
2022-12-11T05:05:59.631Z,11.30
2022-12-11T05:07:01.756Z,11.80
2022-12-11T05:08:03.869Z,12.32
2022-12-11T05:09:05.543Z,14.10
2022-12-11T05:10:07.920Z,11.23
2022-12-11T05:11:12.231Z,11.07
2022-12-11T05:12:13.904Z,11.43
2022-12-11T05:13:15.597Z,10.95
2022-12-11T05:14:17.402Z,10.30
2022-12-11T05:15:19.052Z,11.57
2022-12-11T05:16:20.795Z,13.10
2022-12-11T05:17:22.929Z,10.35
2022-12-11T05:18:25.265Z,10.15
2022-12-11T05:19:27.708Z,9.07
2022-12-11T05:20:29.401Z,9.25
2022-12-11T05:21:35.020Z,9.35
2022-12-11T05:22:38.022Z,10.68
2022-12-11T05:23:40.048Z,10.05
2022-12-11T05:24:41.919Z,9.15
2022-12-11T05:25:43.619Z,9.40
2022-12-11T05:26:45.385Z,9.82
2022-12-11T05:27:47.040Z,10.27
2022-12-11T05:28:54.273Z,9.77
2022-12-11T05:29:59.420Z,9.38
2022-12-11T05:31:05.021Z,8.45
2022-12-11T05:32:07.965Z,8.77
2022-12-11T05:33:09.628Z,9.02
2022-12-11T05:34:11.428Z,9.52
2022-12-11T05:35:13.344Z,7.80
2022-12-11T05:36:22.320Z,7.00
2022-12-11T05:37:23.983Z,8.43
2022-12-11T05:38:25.912Z,7.03
2022-12-11T05:39:27.587Z,6.65
2022-12-11T05:40:29.331Z,7.05
2022-12-11T05:41:32.892Z,6.20
2022-12-11T05:42:34.772Z,5.10
2022-12-11T05:43:37.238Z,4.43
2022-12-11T05:44:38.917Z,5.45
2022-12-11T05:45:40.588Z,8.10
2022-12-11T05:46:42.339Z,6.95
2022-12-11T05:47:44.093Z,8.35
2022-12-11T05:48:48.283Z,8.93
2022-12-11T05:49:49.954Z,8.57
2022-12-11T05:50:59.446Z,8.85
2022-12-11T05:52:01.135Z,8.95
2022-12-11T05:53:02.918Z,8.45
2022-12-11T05:54:05.370Z,8.13
2022-12-11T05:55:07.477Z,6.75
2022-12-11T05:56:13.465Z,5.95
2022-12-11T05:57:15.144Z,6.15
2022-12-11T05:58:16.818Z,6.72
2022-12-11T05:59:19.867Z,6.47
2022-12-11T06:00:21.596Z,6.03
2022-12-11T06:01:30.367Z,5.90
2022-12-11T06:02:34.614Z,5.85
2022-12-11T06:03:36.352Z,5.85
2022-12-11T06:04:38.056Z,6.03
2022-12-11T06:05:41.801Z,6.65
2022-12-11T06:06:43.998Z,6.78
2022-12-11T06:07:45.732Z,7.80
2022-12-11T06:08:51.346Z,7.82
2022-12-11T06:09:53.063Z,8.25
2022-12-11T06:10:54.758Z,9.45
2022-12-11T06:11:56.416Z,9.98
2022-12-11T06:12:58.065Z,10.13
2022-12-11T06:14:01.575Z,9.80
2022-12-11T06:15:05.215Z,10.48
2022-12-11T06:16:08.769Z,9.63
2022-12-11T06:17:10.580Z,8.73
2022-12-11T06:18:12.353Z,8.73
2022-12-11T06:19:16.929Z,8.13
2022-12-11T06:20:18.743Z,7.13
2022-12-11T06:21:26.745Z,7.65
2022-12-11T06:22:28.433Z,8.32
2022-12-11T06:23:30.085Z,8.48
2022-12-11T06:24:31.829Z,8.23
2022-12-11T06:25:33.680Z,9.00
2022-12-11T06:26:35.333Z,9.07
2022-12-11T06:27:37.023Z,8.93
2022-12-11T06:28:39.059Z,8.38
2022-12-11T06:29:41.029Z,8.10
2022-12-11T06:30:42.685Z,8.30
2022-12-11T06:31:44.395Z,7.95
2022-12-11T06:32:46.067Z,8.30
2022-12-11T06:33:48.294Z,7.93
2022-12-11T06:34:50.022Z,7.88
2022-12-11T06:35:52.232Z,8.80
2022-12-11T06:36:53.916Z,7.68
2022-12-11T06:37:56.118Z,7.85
2022-12-11T06:38:57.839Z,8.95
2022-12-11T06:39:59.613Z,8.80
2022-12-11T06:41:04.945Z,20.50
2022-12-11T06:42:06.594Z,23.75
2022-12-11T06:43:08.305Z,22.88
2022-12-11T06:44:10.022Z,19.52
2022-12-11T06:45:12.046Z,19.67
2022-12-11T06:46:16.993Z,19.50
2022-12-11T06:47:18.694Z,19.35
2022-12-11T06:48:20.494Z,19.05
2022-12-11T06:49:22.284Z,21.85
2022-12-11T06:50:24.019Z,18.55
2022-12-11T06:51:25.699Z,17.40
2022-12-11T06:52:30.347Z,15.43
2022-12-11T06:53:32.044Z,13.85
2022-12-11T06:54:33.699Z,13.50
2022-12-11T06:55:36.462Z,12.88
2022-12-11T06:56:38.205Z,13.15
2022-12-11T06:57:40.012Z,11.40
2022-12-11T06:58:43.337Z,11.75
2022-12-11T06:59:45.555Z,10.68
2022-12-11T07:00:47.340Z,11.32
2022-12-11T07:01:49.164Z,11.52
2022-12-11T07:02:51.452Z,11.15
2022-12-11T07:03:55.041Z,10.63
2022-12-11T07:04:56.699Z,10.85
2022-12-11T07:06:02.431Z,12.13
2022-12-11T07:07:04.163Z,10.40
2022-12-11T07:08:07.492Z,8.88
2022-12-11T07:09:10.170Z,7.80
2022-12-11T07:10:12.115Z,9.23
2022-12-11T07:11:15.944Z,9.30
2022-12-11T07:12:17.827Z,10.05
2022-12-11T07:13:19.484Z,9.65
2022-12-11T07:14:21.283Z,8.85
2022-12-11T07:15:22.944Z,5.72
2022-12-11T07:16:25.054Z,11.75
2022-12-11T07:17:26.718Z,10.68
2022-12-11T07:18:29.059Z,9.55
2022-12-11T07:19:31.199Z,6.38
2022-12-11T07:20:32.852Z,5.43
2022-12-11T07:21:34.513Z,5.28
2022-12-11T07:22:40.347Z,4.72
2022-12-11T07:23:44.904Z,6.90
2022-12-11T07:24:46.598Z,7.90
2022-12-11T07:25:48.302Z,8.57
2022-12-11T07:26:50.040Z,5.28
2022-12-11T07:27:51.724Z,4.60
2022-12-11T07:28:53.486Z,4.88
2022-12-11T07:29:55.902Z,4.55
2022-12-11T07:30:57.600Z,5.05
2022-12-11T07:31:59.418Z,4.47
2022-12-11T07:33:01.437Z,5.18
2022-12-11T07:34:05.439Z,8.88
2022-12-11T07:35:07.443Z,5.97
2022-12-11T07:36:11.314Z,7.05
2022-12-11T07:37:12.972Z,7.40
2022-12-11T07:38:14.645Z,7.80
2022-12-11T07:39:16.362Z,9.13
2022-12-11T07:40:18.130Z,10.77
2022-12-11T07:41:19.865Z,11.20
2022-12-11T07:42:21.561Z,12.10
2022-12-11T07:43:23.231Z,12.60
2022-12-11T07:44:24.889Z,12.55
2022-12-11T07:45:26.713Z,17.85
2022-12-11T07:46:31.128Z,19.33
2022-12-11T07:47:33.724Z,14.88
2022-12-11T07:48:36.415Z,17.10
2022-12-11T07:49:38.426Z,20.60
2022-12-11T07:50:40.136Z,18.40
2022-12-11T07:51:43.623Z,19.63
2022-12-11T07:52:45.529Z,20.48
2022-12-11T07:53:49.515Z,15.38
2022-12-11T07:54:51.209Z,11.65
2022-12-11T07:55:52.915Z,12.32
2022-12-11T07:56:54.603Z,12.02
2022-12-11T07:57:56.267Z,15.20
2022-12-11T07:59:00.611Z,12.82
2022-12-11T08:00:02.336Z,12.02
2022-12-11T08:01:04.050Z,9.43
2022-12-11T08:02:05.870Z,10.55
2022-12-11T08:03:07.560Z,11.15
2022-12-11T08:04:12.084Z,11.35
2022-12-11T08:05:13.925Z,10.70
2022-12-11T08:06:16.576Z,13.38
2022-12-11T08:07:18.287Z,12.02
2022-12-11T08:08:20.343Z,8.18
2022-12-11T08:09:22.815Z,7.88
2022-12-11T08:10:24.515Z,7.70
2022-12-11T08:11:26.433Z,8.50
2022-12-11T08:12:28.110Z,8.75
2022-12-11T08:13:29.796Z,9.23
2022-12-11T08:14:31.489Z,7.68
2022-12-11T08:15:33.965Z,8.50
2022-12-11T08:16:35.762Z,8.65
2022-12-11T08:17:40.204Z,7.85
2022-12-11T08:18:42.912Z,7.80
2022-12-11T08:19:44.573Z,13.82
2022-12-11T08:20:46.310Z,9.13
2022-12-11T08:21:48.072Z,12.40
2022-12-11T08:22:52.344Z,12.93
2022-12-11T08:23:56.753Z,9.50
2022-12-11T08:24:58.697Z,11.75
2022-12-11T08:26:04.210Z,16.08
2022-12-11T08:27:06.023Z,13.25
2022-12-11T08:28:07.748Z,13.10
2022-12-11T08:29:10.190Z,19.23
2022-12-11T08:30:12.158Z,10.88
2022-12-11T08:31:15.987Z,8.27
2022-12-11T08:32:18.874Z,8.18
2022-12-11T08:33:20.567Z,8.02
2022-12-11T08:34:22.394Z,9.30
2022-12-11T08:35:24.187Z,9.27
2022-12-11T08:36:26.318Z,8.75
2022-12-11T08:37:28.139Z,11.35
2022-12-11T08:38:30.363Z,10.82
2022-12-11T08:39:32.098Z,9.50
2022-12-11T08:40:33.767Z,8.48
2022-12-11T08:41:35.434Z,8.32
2022-12-11T08:42:37.245Z,9.43
2022-12-11T08:43:39.373Z,9.30
2022-12-11T08:44:41.417Z,7.50
2022-12-11T08:45:43.128Z,7.38
2022-12-11T08:46:44.860Z,8.25
2022-12-11T08:47:46.556Z,6.15
2022-12-11T08:48:48.430Z,8.70
2022-12-11T08:49:50.093Z,8.52
2022-12-11T08:50:51.813Z,6.78
2022-12-11T08:51:53.475Z,8.20
2022-12-11T08:52:55.193Z,6.75
2022-12-11T08:53:58.515Z,5.93
2022-12-11T08:55:00.209Z,5.95
2022-12-11T08:56:10.466Z,6.30
2022-12-11T08:57:12.164Z,6.03
2022-12-11T08:58:13.852Z,5.82
2022-12-11T08:59:16.840Z,6.15
2022-12-11T09:00:18.862Z,4.88
2022-12-11T09:01:26.350Z,5.28
2022-12-11T09:02:28.114Z,5.30
2022-12-11T09:03:29.809Z,5.63
2022-12-11T09:04:31.490Z,5.70
2022-12-11T09:05:33.143Z,5.57
2022-12-11T09:06:34.950Z,6.00
2022-12-11T09:07:38.089Z,6.28
2022-12-11T09:08:40.426Z,6.47
2022-12-11T09:09:42.130Z,6.20
2022-12-11T09:10:43.964Z,6.15
2022-12-11T09:11:46.593Z,6.55
2022-12-11T09:12:48.267Z,5.90
2022-12-11T09:13:50.269Z,6.25
2022-12-11T09:14:52.044Z,6.15
2022-12-11T09:15:53.791Z,6.40
2022-12-11T09:16:55.505Z,7.85
2022-12-11T09:17:57.204Z,11.65
2022-12-11T09:19:00.006Z,15.80
2022-12-11T09:20:02.327Z,17.23
2022-12-11T09:21:13.547Z,16.70
2022-12-11T09:22:15.313Z,14.75
2022-12-11T09:23:16.984Z,11.93
2022-12-11T09:24:18.710Z,14.57
2022-12-11T09:25:20.429Z,16.20
2022-12-11T09:26:22.979Z,15.95
2022-12-11T09:27:24.733Z,15.18
2022-12-11T09:28:26.620Z,14.15
2022-12-11T09:29:28.301Z,13.15
2022-12-11T09:30:30.036Z,11.95
2022-12-11T09:31:34.971Z,11.35
2022-12-11T09:32:36.714Z,10.68
2022-12-11T09:33:39.417Z,10.65
2022-12-11T09:34:41.078Z,11.20
2022-12-11T09:35:43.340Z,11.45
2022-12-11T09:36:45.068Z,21.58
2022-12-11T09:37:46.745Z,8.70
2022-12-11T09:38:48.904Z,6.88
2022-12-11T09:39:50.606Z,13.35
2022-12-11T09:40:52.287Z,8.30
2022-12-11T09:42:00.048Z,5.50
2022-12-11T09:43:12.693Z,8.65
2022-12-11T09:44:32.456Z,8.57
2022-12-11T09:45:34.209Z,9.60
2022-12-11T09:46:36.844Z,9.73
2022-12-11T09:47:44.424Z,9.95
2022-12-11T09:48:48.280Z,9.35
2022-12-11T09:49:57.092Z,9.90
2022-12-11T09:51:01.128Z,9.13
2022-12-11T09:52:15.140Z,9.48
2022-12-11T09:53:22.963Z,10.20
2022-12-11T09:54:24.687Z,8.70
2022-12-11T09:55:36.338Z,8.32
2022-12-11T09:57:14.781Z,7.82
2022-12-11T09:58:39.267Z,7.93
2022-12-11T10:00:05.703Z,6.85
2022-12-11T10:01:27.129Z,6.32
2022-12-11T10:02:43.836Z,5.57
2022-12-11T10:04:01.886Z,6.25
2022-12-11T10:05:20.250Z,5.55
2022-12-11T10:06:38.402Z,5.68
2022-12-11T10:07:52.039Z,6.40
2022-12-11T10:09:03.551Z,6.55
2022-12-11T10:10:22.679Z,7.07
2022-12-11T10:11:56.766Z,5.78
2022-12-11T10:13:02.944Z,4.95
2022-12-11T10:14:13.647Z,7.78
2022-12-11T10:15:39.863Z,7.05
2022-12-11T10:16:45.380Z,5.57
2022-12-11T10:17:47.864Z,4.70
2022-12-11T10:18:50.183Z,3.45
2022-12-11T10:19:52.478Z,3.95
2022-12-11T10:20:55.017Z,3.97
2022-12-11T10:21:59.096Z,2.70
2022-12-11T10:23:02.207Z,2.10
2022-12-11T10:24:06.135Z,2.03
2022-12-11T10:25:17.980Z,2.20
2022-12-11T10:26:22.656Z,2.40
2022-12-11T10:27:31.562Z,2.60
2022-12-11T10:28:33.387Z,3.03
2022-12-11T10:29:35.122Z,3.70
2022-12-11T10:30:38.381Z,3.20
2022-12-11T10:31:59.195Z,2.80
2022-12-11T10:33:27.016Z,2.75
2022-12-11T10:34:40.150Z,3.13
2022-12-11T10:35:44.795Z,4.00
2022-12-11T10:36:47.217Z,3.90
2022-12-11T10:37:48.909Z,3.58
2022-12-11T10:38:50.868Z,3.30
2022-12-11T10:39:52.649Z,3.58
2022-12-11T10:41:17.871Z,3.70
2022-12-11T10:42:22.461Z,3.40
2022-12-11T10:43:44.450Z,3.75
2022-12-11T10:45:01.047Z,3.17
2022-12-11T10:46:03.996Z,3.00
2022-12-11T10:47:10.623Z,3.28
2022-12-11T10:48:13.357Z,3.22
2022-12-11T10:49:27.915Z,3.53
2022-12-11T10:50:29.723Z,4.47
2022-12-11T10:51:31.320Z,4.22
2022-12-11T10:52:39.192Z,4.40
2022-12-11T10:53:43.375Z,3.35
2022-12-11T10:54:48.967Z,3.47
2022-12-11T10:55:50.882Z,3.25
2022-12-11T10:56:54.119Z,2.90
2022-12-11T10:58:04.453Z,3.20
2022-12-11T10:59:06.901Z,3.72
2022-12-11T11:00:30.085Z,2.78
2022-12-11T11:01:32.993Z,3.20
2022-12-11T11:02:38.645Z,4.57
2022-12-11T11:04:20.299Z,3.80
2022-12-11T11:05:34.743Z,2.55
2022-12-11T11:06:36.531Z,2.45
2022-12-11T11:07:38.359Z,2.38
2022-12-11T11:08:44.215Z,3.53
2022-12-11T11:09:46.241Z,3.00
2022-12-11T11:11:06.209Z,2.90
2022-12-11T11:12:24.762Z,2.67
2022-12-11T11:13:29.084Z,2.22
2022-12-11T11:14:30.829Z,2.30
2022-12-11T11:15:33.023Z,2.00
2022-12-11T11:16:39.006Z,2.10
2022-12-11T11:17:54.241Z,2.13
2022-12-11T11:18:58.278Z,1.90
2022-12-11T11:20:12.172Z,1.70
2022-12-11T11:21:19.140Z,2.28
2022-12-11T11:22:20.841Z,1.88
2022-12-11T11:23:24.005Z,2.03
2022-12-11T11:24:36.888Z,1.80
2022-12-11T11:25:38.644Z,2.15
2022-12-11T11:27:11.635Z,1.92
2022-12-11T11:28:05.972Z,1.55
2022-12-11T11:29:26.399Z,1.67
2022-12-11T11:30:35.015Z,2.00
2022-12-11T11:31:37.063Z,1.70
2022-12-11T11:32:41.443Z,1.60
2022-12-11T11:34:06.161Z,2.03
2022-12-11T11:35:11.686Z,1.80
2022-12-11T11:36:42.976Z,2.00
2022-12-11T11:37:57.209Z,1.77
2022-12-11T11:39:23.489Z,2.10
2022-12-11T11:40:39.597Z,2.08
2022-12-11T11:41:52.077Z,1.90
2022-12-11T11:43:07.589Z,1.95
2022-12-11T11:44:15.091Z,1.98
2022-12-11T11:45:24.523Z,2.20
2022-12-11T11:46:36.706Z,2.00
2022-12-11T11:47:43.464Z,5.18
2022-12-11T11:49:11.803Z,6.25
2022-12-11T11:50:27.868Z,2.83
2022-12-11T11:51:38.987Z,3.70
2022-12-11T11:53:52.906Z,3.20
2022-12-11T11:55:02.274Z,2.10
2022-12-11T11:56:35.173Z,2.75
2022-12-11T11:57:54.269Z,1.77
2022-12-11T11:59:08.591Z,2.90
2022-12-11T12:00:28.869Z,3.35
2022-12-11T12:01:35.000Z,3.45
2022-12-11T12:02:37.012Z,4.80
2022-12-11T12:03:38.709Z,6.38
2022-12-11T12:04:40.515Z,18.95
2022-12-11T12:06:04.539Z,16.83
2022-12-11T12:07:35.377Z,8.55
2022-12-11T12:08:40.097Z,5.78
2022-12-11T12:09:41.729Z,6.45
2022-12-11T12:11:16.044Z,6.03
2022-12-11T12:12:34.413Z,6.50
2022-12-11T12:14:43.690Z,5.40
2022-12-11T12:15:48.904Z,5.78
2022-12-11T12:17:08.868Z,5.40
2022-12-11T12:18:22.880Z,5.28
2022-12-11T12:19:46.351Z,5.55
2022-12-11T12:20:53.745Z,5.22
2022-12-11T12:21:55.973Z,8.30
2022-12-11T12:23:25.502Z,7.90
2022-12-11T12:24:49.588Z,5.10
2022-12-11T12:26:02.337Z,5.30
2022-12-11T12:27:51.583Z,5.03
2022-12-11T12:29:06.004Z,4.78
2022-12-11T12:30:22.116Z,4.82
2022-12-11T12:31:24.863Z,4.45
2022-12-11T12:32:41.059Z,4.00
2022-12-11T12:33:58.034Z,4.72
2022-12-11T12:35:05.821Z,5.05
2022-12-11T12:36:32.543Z,5.43
2022-12-11T12:38:00.461Z,5.70
2022-12-11T12:39:07.956Z,5.53
2022-12-11T12:40:24.950Z,5.72
2022-12-11T12:41:32.820Z,6.35
2022-12-11T12:42:52.947Z,5.80
2022-12-11T12:44:12.090Z,5.30
2022-12-11T12:45:25.140Z,5.35
2022-12-11T12:46:51.715Z,5.57
2022-12-11T12:47:53.710Z,5.20
2022-12-11T12:48:59.073Z,5.15
2022-12-11T12:50:01.802Z,5.20
2022-12-11T12:51:04.614Z,6.00
2022-12-11T12:52:13.462Z,6.55
2022-12-11T12:53:23.121Z,7.13
2022-12-11T12:54:27.955Z,6.18
2022-12-11T12:55:32.040Z,6.15
2022-12-11T12:56:34.157Z,5.95
2022-12-11T12:57:38.408Z,4.75
2022-12-11T12:58:43.732Z,5.07
2022-12-11T12:59:54.436Z,4.15
2022-12-11T13:01:10.907Z,3.65
2022-12-11T13:02:16.938Z,3.45
2022-12-11T13:03:32.781Z,3.58
2022-12-11T13:04:55.076Z,3.45
2022-12-11T13:06:02.046Z,3.17
2022-12-11T13:07:32.802Z,3.20
2022-12-11T13:08:46.183Z,2.90
2022-12-11T13:10:04.744Z,3.05
2022-12-11T13:11:12.512Z,3.00
2022-12-11T13:12:46.296Z,1.85
2022-12-11T13:14:02.687Z,0.93
2022-12-11T13:15:04.477Z,0.70
2022-12-11T13:16:34.682Z,0.80
2022-12-11T13:17:39.307Z,0.90
2022-12-11T13:18:43.374Z,0.93
2022-12-11T13:19:45.089Z,0.57
2022-12-11T13:20:51.230Z,1.20
2022-12-11T13:22:13.149Z,0.95
2022-12-11T13:23:47.169Z,0.95
2022-12-11T13:24:49.572Z,0.80
2022-12-11T13:25:54.832Z,0.90
2022-12-11T13:26:56.931Z,0.85
2022-12-11T13:28:08.960Z,0.88
2022-12-11T13:29:34.088Z,0.68
2022-12-11T13:30:36.380Z,0.80
2022-12-11T13:31:43.933Z,0.70
2022-12-11T13:33:03.673Z,0.75
2022-12-11T13:34:22.919Z,0.70
2022-12-11T13:35:24.755Z,0.85
2022-12-11T13:36:33.243Z,0.80
2022-12-11T13:37:43.400Z,0.82
2022-12-11T13:38:49.522Z,0.75
2022-12-11T13:39:52.132Z,0.85
2022-12-11T13:40:55.804Z,0.90
2022-12-11T13:42:01.884Z,0.90
2022-12-11T13:43:08.461Z,1.23
2022-12-11T13:44:20.242Z,1.17
2022-12-11T13:45:29.811Z,1.10
2022-12-11T13:46:35.941Z,1.02
2022-12-11T13:47:38.302Z,0.70
2022-12-11T13:48:48.011Z,0.55
2022-12-11T13:49:55.251Z,0.60
2022-12-11T13:50:58.537Z,0.50
2022-12-11T13:52:01.224Z,0.50
2022-12-11T13:53:03.567Z,0.68
2022-12-11T13:54:17.250Z,0.57
2022-12-11T13:55:32.680Z,0.40
2022-12-11T13:56:34.565Z,0.52
2022-12-11T13:57:46.085Z,0.50
2022-12-11T13:58:48.400Z,0.75
2022-12-11T13:59:55.817Z,0.65
2022-12-11T14:01:06.489Z,0.70
2022-12-11T14:02:24.015Z,0.70
2022-12-11T14:03:26.306Z,0.50
2022-12-11T14:04:29.733Z,0.32
2022-12-11T14:05:31.709Z,0.60
2022-12-11T14:06:35.246Z,0.52
2022-12-11T14:07:41.879Z,0.50
2022-12-11T14:08:46.327Z,1.10
2022-12-11T14:09:48.129Z,2.28
2022-12-11T14:10:54.262Z,1.85
2022-12-11T14:11:57.466Z,1.52
2022-12-11T14:13:23.559Z,1.10
2022-12-11T14:14:50.593Z,1.40
2022-12-11T14:15:53.728Z,1.10
2022-12-11T14:16:55.897Z,1.65
2022-12-11T14:17:59.453Z,0.73
2022-12-11T14:19:07.550Z,0.90
2022-12-11T14:20:20.322Z,0.68
2022-12-11T14:21:24.848Z,1.30
2022-12-11T14:22:28.303Z,1.17
2022-12-11T14:23:35.673Z,1.33
2022-12-11T14:24:37.351Z,1.23
2022-12-11T14:25:40.057Z,1.70
2022-12-11T14:26:51.938Z,0.40
2022-12-11T14:27:55.678Z,0.43
2022-12-11T14:28:57.559Z,1.13
2022-12-11T14:30:10.884Z,0.50
2022-12-11T14:31:34.280Z,1.17
2022-12-11T14:32:40.971Z,0.52
2022-12-11T14:33:51.903Z,1.13
2022-12-11T14:34:54.189Z,1.10
2022-12-11T14:35:56.492Z,0.70